createdAt,value
2023-01-17T00:02:57.883Z,4.29
2023-01-17T00:06:19.541Z,4.36
2023-01-17T00:09:40.752Z,4.38
2023-01-17T00:12:48.743Z,4.29
2023-01-17T00:15:52.369Z,4.20
2023-01-17T00:19:13.364Z,4.29
2023-01-17T00:22:47.131Z,4.29
2023-01-17T00:26:04.775Z,4.32
2023-01-17T00:29:07.300Z,4.31
2023-01-17T00:32:09.939Z,4.16
2023-01-17T00:35:12.613Z,4.14
2023-01-17T00:38:17.604Z,4.06
2023-01-17T00:41:20.118Z,4.10
2023-01-17T00:44:41.135Z,4.09
2023-01-17T00:48:06.000Z,4.10
2023-01-17T00:51:27.355Z,4.15
2023-01-17T00:54:48.620Z,4.08
2023-01-17T00:58:09.721Z,4.08
2023-01-17T01:01:31.245Z,4.08
2023-01-17T01:04:52.800Z,4.21
2023-01-17T01:08:14.423Z,4.16
2023-01-17T01:11:39.197Z,4.18
2023-01-17T01:15:00.305Z,4.15
2023-01-17T01:18:30.469Z,4.12
2023-01-17T01:21:52.381Z,4.12
2023-01-17T01:25:13.821Z,4.04
2023-01-17T01:28:34.763Z,4.03
2023-01-17T01:31:56.818Z,4.02
2023-01-17T01:34:59.406Z,4.03
2023-01-17T01:38:03.318Z,4.04
2023-01-17T01:41:06.802Z,3.98
2023-01-17T01:44:43.647Z,3.95
2023-01-17T01:47:47.476Z,3.99
2023-01-17T01:50:51.132Z,3.99
2023-01-17T01:54:01.280Z,3.89
2023-01-17T01:57:07.735Z,3.88
2023-01-17T02:00:18.116Z,3.86
2023-01-17T02:03:29.556Z,3.81
2023-01-17T02:06:39.042Z,3.73
2023-01-17T02:09:42.032Z,3.71
2023-01-17T02:12:45.949Z,3.63
2023-01-17T02:16:13.807Z,3.68
2023-01-17T02:19:45.335Z,3.66
2023-01-17T02:23:11.882Z,3.59
2023-01-17T02:26:42.542Z,3.56
2023-01-17T02:30:09.380Z,3.57
2023-01-17T02:33:39.261Z,3.49
2023-01-17T02:36:52.786Z,3.47
2023-01-17T02:40:02.863Z,3.50
2023-01-17T02:43:11.844Z,3.44
2023-01-17T02:46:14.500Z,3.54
2023-01-17T02:49:19.523Z,3.58
2023-01-17T02:52:51.947Z,3.57
2023-01-17T02:56:06.116Z,3.69
2023-01-17T02:59:08.976Z,3.75
2023-01-17T03:02:53.066Z,3.73
2023-01-17T03:06:02.580Z,3.57
2023-01-17T03:09:06.308Z,3.61
2023-01-17T03:12:09.864Z,3.71
2023-01-17T03:15:14.167Z,3.72
2023-01-17T03:18:17.420Z,3.71
2023-01-17T03:21:21.112Z,3.72
2023-01-17T03:24:24.051Z,3.72
2023-01-17T03:27:26.546Z,3.78
2023-01-17T03:30:29.748Z,3.79
2023-01-17T03:33:32.309Z,3.82
2023-01-17T03:36:35.114Z,3.67
2023-01-17T03:39:37.789Z,3.59
2023-01-17T03:42:40.543Z,3.55
2023-01-17T03:45:43.384Z,3.62
2023-01-17T03:48:46.424Z,3.53
2023-01-17T03:51:49.714Z,3.60
2023-01-17T03:54:52.346Z,3.60
2023-01-17T03:57:54.714Z,3.65
2023-01-17T04:00:57.821Z,3.61
2023-01-17T04:04:01.011Z,3.56
2023-01-17T04:07:03.945Z,3.66
2023-01-17T04:10:07.167Z,3.51
2023-01-17T04:13:09.917Z,3.62
2023-01-17T04:16:15.691Z,3.60
2023-01-17T04:19:18.992Z,3.61
2023-01-17T04:22:21.593Z,3.70
2023-01-17T04:25:25.914Z,3.51
2023-01-17T04:28:28.299Z,3.54
2023-01-17T04:31:31.401Z,3.50
2023-01-17T04:34:33.955Z,3.55
2023-01-17T04:37:37.244Z,3.52
2023-01-17T04:40:39.816Z,3.55
2023-01-17T04:43:42.452Z,3.50
2023-01-17T04:46:45.089Z,3.53
2023-01-17T04:49:48.018Z,3.52
2023-01-17T04:52:50.539Z,3.53
2023-01-17T04:55:53.730Z,3.53
2023-01-17T04:58:59.184Z,3.54
2023-01-17T05:02:01.983Z,3.52
2023-01-17T05:05:04.957Z,3.49
2023-01-17T05:08:07.926Z,3.68
2023-01-17T05:11:10.699Z,3.57
2023-01-17T05:14:13.658Z,3.48
2023-01-17T05:17:16.391Z,3.51
2023-01-17T05:20:20.070Z,3.51
2023-01-17T05:23:22.933Z,3.43
2023-01-17T05:26:25.675Z,3.45
2023-01-17T05:29:28.881Z,3.41
2023-01-17T05:32:31.914Z,3.42
2023-01-17T05:35:34.286Z,3.46
2023-01-17T05:38:37.088Z,3.55
2023-01-17T05:41:39.848Z,3.57
2023-01-17T05:44:42.786Z,3.60
2023-01-17T05:47:52.868Z,3.71
2023-01-17T05:50:55.584Z,3.75
2023-01-17T05:53:58.062Z,3.76
2023-01-17T05:57:00.966Z,3.78
2023-01-17T06:00:03.971Z,3.88
2023-01-17T06:03:07.409Z,3.87
2023-01-17T06:06:09.812Z,3.87
2023-01-17T06:09:12.614Z,3.84
2023-01-17T06:12:15.644Z,3.84
2023-01-17T06:15:18.861Z,3.86
2023-01-17T06:18:21.194Z,3.88
2023-01-17T06:21:23.924Z,3.91
2023-01-17T06:24:27.271Z,3.84
2023-01-17T06:27:29.963Z,3.83
2023-01-17T06:30:32.737Z,3.82
2023-01-17T06:33:35.563Z,3.87
2023-01-17T06:36:38.016Z,3.88
2023-01-17T06:39:40.677Z,3.89
2023-01-17T06:42:43.716Z,3.91
2023-01-17T06:45:46.321Z,3.87
2023-01-17T06:48:49.894Z,3.87
2023-01-17T06:51:52.517Z,3.88
2023-01-17T06:54:54.916Z,3.91
2023-01-17T06:57:59.572Z,3.91
2023-01-17T07:01:10.556Z,3.93
2023-01-17T07:04:14.457Z,3.99
2023-01-17T07:07:19.462Z,4.09
2023-01-17T07:10:24.106Z,4.07
2023-01-17T07:13:28.818Z,4.08
2023-01-17T07:16:31.934Z,4.09
2023-01-17T07:19:34.461Z,4.16
2023-01-17T07:22:37.838Z,4.19
2023-01-17T07:25:40.547Z,4.26
2023-01-17T07:28:43.214Z,4.33
2023-01-17T07:31:45.770Z,4.35
2023-01-17T07:34:48.435Z,4.33
2023-01-17T07:37:51.592Z,4.41
2023-01-17T07:40:58.919Z,4.36
2023-01-17T07:44:01.964Z,4.45
2023-01-17T07:47:04.665Z,4.54
2023-01-17T07:50:09.177Z,4.53
2023-01-17T07:53:11.983Z,4.51
2023-01-17T07:56:14.502Z,4.58
2023-01-17T07:59:18.623Z,4.63
2023-01-17T08:02:24.410Z,4.70
2023-01-17T08:05:30.888Z,5.36
2023-01-17T08:08:33.920Z,5.01
2023-01-17T08:11:36.552Z,4.83
2023-01-17T08:14:39.064Z,4.87
2023-01-17T08:17:54.537Z,4.85
2023-01-17T08:20:56.995Z,4.94
2023-01-17T08:23:59.423Z,4.95
2023-01-17T08:27:01.865Z,5.02
2023-01-17T08:30:05.865Z,5.00
2023-01-17T08:33:08.414Z,5.05
2023-01-17T08:36:11.018Z,5.04
2023-01-17T08:39:14.689Z,5.09
2023-01-17T08:42:17.229Z,5.05
2023-01-17T08:45:19.856Z,5.06
2023-01-17T08:48:23.662Z,5.04
2023-01-17T08:51:28.953Z,5.05
2023-01-17T08:54:35.660Z,5.02
2023-01-17T08:57:38.420Z,5.02
2023-01-17T09:00:41.327Z,5.01
2023-01-17T09:03:45.765Z,5.05
2023-01-17T09:06:48.872Z,5.06
2023-01-17T09:09:52.851Z,5.09
2023-01-17T09:12:55.697Z,5.13
2023-01-17T09:15:59.373Z,5.17
2023-01-17T09:19:02.002Z,5.11
2023-01-17T09:22:05.609Z,5.10
2023-01-17T09:25:08.816Z,5.07
2023-01-17T09:28:11.543Z,5.10
2023-01-17T09:31:16.589Z,5.09
2023-01-17T09:34:20.014Z,5.07
2023-01-17T09:37:22.642Z,5.06
2023-01-17T09:40:25.745Z,5.08
2023-01-17T09:43:47.505Z,5.18
2023-01-17T09:46:54.531Z,5.30
2023-01-17T09:50:27.233Z,5.30
2023-01-17T09:53:34.238Z,5.38
2023-01-17T09:56:43.828Z,5.43
2023-01-17T10:00:16.360Z,5.46
2023-01-17T10:03:30.976Z,5.50
2023-01-17T10:07:11.928Z,5.55
2023-01-17T10:10:26.755Z,5.95
2023-01-17T10:13:54.243Z,5.81
2023-01-17T10:17:00.037Z,5.81
2023-01-17T10:20:30.770Z,5.82
2023-01-17T10:24:03.838Z,5.72
2023-01-17T10:27:25.085Z,6.06
2023-01-17T10:30:51.940Z,8.64
2023-01-17T10:33:55.652Z,8.47
2023-01-17T10:37:23.048Z,8.79
2023-01-17T10:40:55.091Z,8.55
2023-01-17T10:44:45.672Z,7.54
2023-01-17T10:47:59.608Z,6.89
2023-01-17T10:51:11.428Z,6.95
2023-01-17T10:54:43.250Z,6.72
2023-01-17T10:57:48.878Z,6.35
2023-01-17T11:00:59.447Z,6.22
2023-01-17T11:04:02.576Z,7.53
2023-01-17T11:07:16.336Z,7.60
2023-01-17T11:10:41.854Z,6.71
2023-01-17T11:13:47.869Z,6.70
2023-01-17T11:17:04.758Z,6.32
2023-01-17T11:20:43.154Z,6.20
2023-01-17T11:23:49.049Z,5.89
2023-01-17T11:26:51.705Z,5.79
2023-01-17T11:30:20.373Z,5.75
2023-01-17T11:33:48.314Z,5.67
2023-01-17T11:37:17.275Z,5.79
2023-01-17T11:40:23.968Z,6.16
2023-01-17T11:43:27.675Z,6.32
2023-01-17T11:46:30.468Z,6.12
2023-01-17T11:49:32.992Z,6.12
2023-01-17T11:52:39.307Z,6.14
2023-01-17T11:56:12.415Z,7.44
2023-01-17T11:59:21.266Z,7.06
2023-01-17T12:02:48.309Z,6.90
2023-01-17T12:06:01.852Z,6.78
2023-01-17T12:09:34.937Z,7.11
2023-01-17T12:13:11.267Z,7.04
2023-01-17T12:16:30.005Z,6.85
2023-01-17T12:19:51.352Z,6.31
2023-01-17T12:23:16.240Z,7.04
2023-01-17T12:26:28.822Z,7.69
2023-01-17T12:29:49.951Z,6.65
2023-01-17T12:33:10.736Z,6.19
2023-01-17T12:36:22.525Z,6.17
2023-01-17T12:39:35.725Z,6.28
2023-01-17T12:42:43.252Z,6.57
2023-01-17T12:45:49.472Z,7.46
2023-01-17T12:48:58.407Z,7.54
2023-01-17T12:52:48.811Z,7.54
2023-01-17T12:56:17.335Z,7.57
2023-01-17T12:59:39.287Z,7.41
2023-01-17T13:02:54.708Z,7.56
2023-01-17T13:05:58.587Z,7.94
2023-01-17T13:09:03.890Z,7.64
2023-01-17T13:12:12.643Z,7.27
2023-01-17T13:15:27.254Z,7.16
2023-01-17T13:18:30.056Z,7.95
2023-01-17T13:21:34.634Z,7.87
2023-01-17T13:25:23.346Z,8.15
2023-01-17T13:28:35.503Z,8.45
2023-01-17T13:31:50.837Z,8.11
2023-01-17T13:35:01.753Z,8.45
2023-01-17T13:38:23.123Z,7.95
2023-01-17T13:41:34.625Z,8.32
2023-01-17T13:44:37.579Z,8.15
2023-01-17T13:47:41.557Z,7.80
2023-01-17T13:50:58.456Z,8.04
2023-01-17T13:54:01.130Z,7.03
2023-01-17T13:57:30.428Z,6.63
2023-01-17T14:00:36.103Z,6.24
2023-01-17T14:03:46.266Z,6.39
2023-01-17T14:06:53.085Z,6.30
2023-01-17T14:09:55.569Z,5.93
2023-01-17T14:12:59.100Z,5.72
2023-01-17T14:16:05.446Z,5.47
2023-01-17T14:19:26.118Z,5.32
2023-01-17T14:22:32.044Z,5.26
2023-01-17T14:25:40.582Z,5.09
2023-01-17T14:28:43.053Z,5.05
2023-01-17T14:31:45.980Z,4.91
2023-01-17T14:34:57.257Z,4.79
2023-01-17T14:38:05.404Z,4.84
2023-01-17T14:41:13.361Z,4.91
2023-01-17T14:44:16.907Z,4.99
2023-01-17T14:47:20.223Z,4.99
2023-01-17T14:50:26.736Z,4.93
2023-01-17T14:53:31.560Z,4.99
2023-01-17T14:56:34.209Z,5.08
2023-01-17T14:59:36.787Z,5.07
2023-01-17T15:02:43.996Z,5.12
2023-01-17T15:05:51.437Z,5.12
2023-01-17T15:08:54.600Z,5.12
2023-01-17T15:11:58.183Z,5.16
2023-01-17T15:15:01.701Z,4.94
2023-01-17T15:18:14.792Z,5.07
2023-01-17T15:21:21.141Z,4.92
2023-01-17T15:24:27.710Z,4.69
2023-01-17T15:27:30.560Z,4.87
2023-01-17T15:30:33.183Z,4.78
2023-01-17T15:33:38.936Z,4.83
2023-01-17T15:36:41.558Z,4.88
2023-01-17T15:39:44.144Z,4.84
2023-01-17T15:42:51.214Z,4.61
2023-01-17T15:45:58.514Z,4.47
2023-01-17T15:49:31.227Z,4.54
2023-01-17T15:52:33.806Z,4.42
2023-01-17T15:55:40.159Z,4.33
2023-01-17T15:58:42.684Z,4.22
2023-01-17T16:01:55.726Z,4.19
2023-01-17T16:04:59.915Z,4.21
2023-01-17T16:08:06.297Z,4.30
2023-01-17T16:11:11.775Z,4.28
2023-01-17T16:14:14.309Z,4.34
2023-01-17T16:17:17.881Z,4.36
2023-01-17T16:20:23.356Z,4.30
2023-01-17T16:23:26.583Z,4.28
2023-01-17T16:26:29.534Z,4.39
2023-01-17T16:29:32.021Z,4.41
2023-01-17T16:32:34.858Z,4.26
2023-01-17T16:35:37.716Z,4.22
2023-01-17T16:38:40.549Z,4.05
2023-01-17T16:41:43.350Z,4.25
2023-01-17T16:44:46.159Z,4.10
2023-01-17T16:51:10.564Z,4.11
2023-01-17T16:54:13.044Z,4.06
2023-01-17T16:57:16.003Z,4.09
2023-01-17T17:00:18.930Z,4.02
2023-01-17T17:03:21.846Z,4.04
2023-01-17T17:06:24.489Z,4.08
2023-01-17T17:09:26.980Z,4.09
2023-01-17T17:12:29.800Z,4.16
2023-01-17T17:15:32.432Z,4.20
2023-01-17T17:18:36.761Z,4.13
2023-01-17T17:21:39.925Z,4.16
2023-01-17T17:24:42.348Z,4.22
2023-01-17T17:27:45.260Z,4.11
2023-01-17T17:30:47.794Z,4.19
2023-01-17T17:33:50.660Z,4.13
2023-01-17T17:36:53.422Z,4.10
2023-01-17T17:39:57.869Z,4.04
2023-01-17T17:43:00.636Z,3.96
2023-01-17T17:46:03.267Z,4.06
2023-01-17T17:49:06.841Z,4.07
2023-01-17T17:52:10.333Z,4.13
2023-01-17T17:55:13.239Z,4.13
2023-01-17T17:58:16.038Z,4.10
2023-01-17T18:01:19.306Z,4.04
2023-01-17T18:04:22.371Z,4.06
2023-01-17T18:07:25.232Z,4.02
2023-01-17T18:10:28.012Z,4.07
2023-01-17T18:13:32.828Z,4.09
2023-01-17T18:16:39.445Z,4.02
2023-01-17T18:19:42.627Z,3.96
2023-01-17T18:22:45.772Z,4.01
2023-01-17T18:25:48.501Z,4.08
2023-01-17T18:28:56.820Z,4.03
2023-01-17T18:31:59.390Z,4.00
2023-01-17T18:35:04.117Z,3.98
2023-01-17T18:38:06.714Z,3.93
2023-01-17T18:41:15.797Z,3.86
2023-01-17T18:44:22.300Z,3.82
2023-01-17T18:47:25.513Z,3.79
2023-01-17T18:50:28.657Z,3.90
2023-01-17T18:53:33.489Z,3.84
2023-01-17T18:56:36.370Z,3.93
2023-01-17T18:59:39.868Z,3.88
2023-01-17T19:02:42.853Z,3.89
2023-01-17T19:05:47.050Z,3.91
2023-01-17T19:08:51.826Z,3.97
2023-01-17T19:11:54.725Z,3.97
2023-01-17T19:14:57.750Z,3.95
2023-01-17T19:18:00.603Z,3.96
2023-01-17T19:21:12.740Z,4.00
2023-01-17T19:24:15.781Z,4.04
2023-01-17T19:27:18.867Z,4.03
2023-01-17T19:30:22.526Z,4.03
2023-01-17T19:33:25.268Z,4.04
2023-01-17T19:36:33.965Z,4.05
2023-01-17T19:39:36.977Z,4.10
2023-01-17T19:42:40.770Z,4.08
2023-01-17T19:45:43.289Z,4.16
2023-01-17T19:48:46.252Z,4.14
2023-01-17T19:51:50.173Z,4.16
2023-01-17T19:54:53.083Z,4.23
2023-01-17T19:57:56.182Z,4.31
2023-01-17T20:01:17.013Z,4.33
2023-01-17T20:04:19.793Z,4.33
2023-01-17T20:07:23.064Z,4.37
2023-01-17T20:10:26.236Z,4.42
2023-01-17T20:13:29.393Z,4.47
2023-01-17T20:16:34.953Z,4.45
2023-01-17T20:19:37.497Z,4.51
2023-01-17T20:22:44.341Z,4.53
2023-01-17T20:25:59.143Z,4.59
2023-01-17T20:29:04.678Z,4.68
2023-01-17T20:32:08.192Z,4.60
2023-01-17T20:35:10.851Z,4.65
2023-01-17T20:38:21.800Z,4.69
2023-01-17T20:41:28.840Z,4.76
2023-01-17T20:44:32.823Z,4.83
2023-01-17T20:47:35.513Z,4.77
2023-01-17T20:50:38.330Z,4.72
2023-01-17T20:53:42.394Z,4.74
2023-01-17T20:56:47.560Z,4.77
2023-01-17T20:59:50.115Z,4.81
2023-01-17T21:02:53.483Z,4.93
2023-01-17T21:06:07.734Z,4.95
2023-01-17T21:09:15.315Z,4.95
2023-01-17T21:12:17.993Z,4.98
2023-01-17T21:15:20.736Z,5.02
2023-01-17T21:18:26.648Z,5.04
2023-01-17T21:21:29.563Z,5.06
2023-01-17T21:24:32.199Z,5.09
2023-01-17T21:27:35.636Z,5.13
2023-01-17T21:30:38.119Z,5.20
2023-01-17T21:33:40.765Z,5.28
2023-01-17T21:36:43.454Z,5.40
2023-01-17T21:39:51.559Z,5.37
2023-01-17T21:42:54.128Z,5.54
2023-01-17T21:45:57.072Z,5.56
2023-01-17T21:49:00.313Z,5.47
2023-01-17T21:52:03.158Z,5.44
2023-01-17T21:55:24.611Z,5.45
2023-01-17T21:58:45.799Z,5.40
2023-01-17T22:01:49.115Z,5.44
2023-01-17T22:04:51.739Z,5.44
2023-01-17T22:08:12.333Z,5.41
2023-01-17T22:11:17.343Z,5.40
2023-01-17T22:14:20.926Z,5.45
2023-01-17T22:17:23.544Z,5.48
2023-01-17T22:20:26.125Z,5.45
2023-01-17T22:23:28.635Z,5.50
2023-01-17T22:26:31.864Z,5.55
2023-01-17T22:29:36.546Z,5.52
2023-01-17T22:32:39.736Z,5.46
2023-01-17T22:35:42.703Z,5.47
2023-01-17T22:38:45.397Z,5.51
2023-01-17T22:41:48.414Z,5.56
2023-01-17T22:44:51.172Z,5.51
2023-01-17T22:47:53.932Z,5.49
2023-01-17T22:50:58.389Z,5.52
2023-01-17T22:54:01.574Z,5.61
2023-01-17T22:57:04.164Z,5.57
2023-01-17T23:00:14.692Z,5.65
2023-01-17T23:03:17.405Z,5.72
2023-01-17T23:06:28.429Z,5.80
2023-01-17T23:09:30.897Z,5.88
2023-01-17T23:12:34.130Z,5.91
2023-01-17T23:15:58.273Z,5.88
2023-01-17T23:19:19.212Z,5.92
2023-01-17T23:22:24.207Z,5.88
2023-01-17T23:25:26.900Z,5.89
2023-01-17T23:28:29.599Z,5.88
2023-01-17T23:31:32.609Z,5.86
2023-01-17T23:34:35.062Z,5.85
2023-01-17T23:37:56.696Z,5.83
2023-01-17T23:41:19.833Z,5.85
2023-01-17T23:44:23.972Z,5.91
2023-01-17T23:47:26.734Z,6.12
2023-01-17T23:50:29.366Z,6.16
2023-01-17T23:53:31.993Z,6.18
2023-01-17T23:56:34.689Z,6.24
2023-01-17T23:59:37.442Z,6.22
